sensor_id;sensor_type;location;lat;lon;timestamp;P1;durP1;ratioP1;P2;durP2;ratioP2
36923;SDS011;22841;50.252;18.688;2023-06-26T00:00:45;12.43;;;6.50;;
36923;SDS011;22841;50.252;18.688;2023-06-26T00:03:13;12.55;;;6.03;;
36923;SDS011;22841;50.252;18.688;2023-06-26T00:05:40;10.57;;;7.07;;
36923;SDS011;22841;50.252;18.688;2023-06-26T00:08:07;9.48;;;6.65;;
36923;SDS011;22841;50.252;18.688;2023-06-26T00:10:34;9.70;;;6.70;;
36923;SDS011;22841;50.252;18.688;2023-06-26T00:13:00;8.52;;;5.95;;
36923;SDS011;22841;50.252;18.688;2023-06-26T00:15:27;9.85;;;6.60;;
36923;SDS011;22841;50.252;18.688;2023-06-26T00:17:57;12.27;;;7.35;;
36923;SDS011;22841;50.252;18.688;2023-06-26T00:20:24;12.32;;;7.32;;
36923;SDS011;22841;50.252;18.688;2023-06-26T00:22:50;9.93;;;6.63;;
36923;SDS011;22841;50.252;18.688;2023-06-26T00:25:16;10.35;;;6.70;;
36923;SDS011;22841;50.252;18.688;2023-06-26T00:27:42;10.55;;;8.35;;
36923;SDS011;22841;50.252;18.688;2023-06-26T00:30:09;12.35;;;7.68;;
36923;SDS011;22841;50.252;18.688;2023-06-26T00:32:35;10.35;;;8.13;;
36923;SDS011;22841;50.252;18.688;2023-06-26T00:35:01;10.20;;;7.53;;
36923;SDS011;22841;50.252;18.688;2023-06-26T00:37:27;11.45;;;7.30;;
36923;SDS011;22841;50.252;18.688;2023-06-26T00:39:53;9.18;;;6.82;;
36923;SDS011;22841;50.252;18.688;2023-06-26T00:42:19;11.00;;;7.07;;
36923;SDS011;22841;50.252;18.688;2023-06-26T00:44:45;9.18;;;6.63;;
36923;SDS011;22841;50.252;18.688;2023-06-26T00:47:13;9.82;;;6.55;;
36923;SDS011;22841;50.252;18.688;2023-06-26T00:49:41;11.88;;;7.95;;
36923;SDS011;22841;50.252;18.688;2023-06-26T00:52:07;10.35;;;7.35;;
36923;SDS011;22841;50.252;18.688;2023-06-26T00:54:34;10.05;;;7.05;;
36923;SDS011;22841;50.252;18.688;2023-06-26T00:57:00;14.05;;;8.00;;
36923;SDS011;22841;50.252;18.688;2023-06-26T00:59:26;12.98;;;8.20;;
36923;SDS011;22841;50.252;18.688;2023-06-26T01:01:52;9.57;;;7.65;;
36923;SDS011;22841;50.252;18.688;2023-06-26T01:04:18;11.48;;;8.60;;
36923;SDS011;22841;50.252;18.688;2023-06-26T01:06:45;9.30;;;7.82;;
36923;SDS011;22841;50.252;18.688;2023-06-26T01:09:17;15.27;;;7.70;;
36923;SDS011;22841;50.252;18.688;2023-06-26T01:11:44;11.35;;;8.35;;
36923;SDS011;22841;50.252;18.688;2023-06-26T01:14:11;17.95;;;9.02;;
36923;SDS011;22841;50.252;18.688;2023-06-26T01:16:38;17.20;;;9.80;;
36923;SDS011;22841;50.252;18.688;2023-06-26T01:19:08;13.57;;;9.18;;
36923;SDS011;22841;50.252;18.688;2023-06-26T01:21:37;11.95;;;8.57;;
36923;SDS011;22841;50.252;18.688;2023-06-26T01:24:18;12.38;;;8.32;;
36923;SDS011;22841;50.252;18.688;2023-06-26T01:26:52;10.07;;;7.85;;
36923;SDS011;22841;50.252;18.688;2023-06-26T01:29:19;12.73;;;8.98;;
36923;SDS011;22841;50.252;18.688;2023-06-26T01:31:48;13.65;;;9.38;;
36923;SDS011;22841;50.252;18.688;2023-06-26T01:34:15;13.05;;;8.07;;
36923;SDS011;22841;50.252;18.688;2023-06-26T01:36:44;12.63;;;8.63;;
36923;SDS011;22841;50.252;18.688;2023-06-26T01:39:15;11.13;;;8.50;;
36923;SDS011;22841;50.252;18.688;2023-06-26T01:41:42;12.15;;;8.85;;
36923;SDS011;22841;50.252;18.688;2023-06-26T01:44:14;13.77;;;8.07;;
36923;SDS011;22841;50.252;18.688;2023-06-26T01:49:49;13.60;;;8.55;;
36923;SDS011;22841;50.252;18.688;2023-06-26T01:58:14;11.90;;;9.03;;
36923;SDS011;22841;50.252;18.688;2023-06-26T02:00:42;11.15;;;8.30;;
36923;SDS011;22841;50.252;18.688;2023-06-26T02:03:09;15.15;;;8.00;;
36923;SDS011;22841;50.252;18.688;2023-06-26T02:05:35;10.75;;;8.15;;
36923;SDS011;22841;50.252;18.688;2023-06-26T02:08:01;14.32;;;9.38;;
36923;SDS011;22841;50.252;18.688;2023-06-26T02:10:28;11.60;;;8.55;;
36923;SDS011;22841;50.252;18.688;2023-06-26T02:12:54;14.25;;;8.68;;
36923;SDS011;22841;50.252;18.688;2023-06-26T02:15:20;11.20;;;7.80;;
36923;SDS011;22841;50.252;18.688;2023-06-26T02:17:47;10.75;;;8.18;;
36923;SDS011;22841;50.252;18.688;2023-06-26T02:20:14;11.23;;;8.20;;
36923;SDS011;22841;50.252;18.688;2023-06-26T02:22:41;12.35;;;8.57;;
36923;SDS011;22841;50.252;18.688;2023-06-26T02:25:07;10.38;;;8.48;;
36923;SDS011;22841;50.252;18.688;2023-06-26T02:27:38;11.77;;;8.63;;
36923;SDS011;22841;50.252;18.688;2023-06-26T02:30:04;13.00;;;9.02;;
36923;SDS011;22841;50.252;18.688;2023-06-26T02:32:31;11.15;;;7.97;;
36923;SDS011;22841;50.252;18.688;2023-06-26T02:34:57;14.90;;;7.97;;
36923;SDS011;22841;50.252;18.688;2023-06-26T02:37:23;10.63;;;7.78;;
36923;SDS011;22841;50.252;18.688;2023-06-26T02:39:49;17.40;;;8.60;;
36923;SDS011;22841;50.252;18.688;2023-06-26T02:42:15;13.05;;;8.15;;
36923;SDS011;22841;50.252;18.688;2023-06-26T02:44:41;13.40;;;8.85;;
36923;SDS011;22841;50.252;18.688;2023-06-26T02:47:07;14.18;;;8.32;;
36923;SDS011;22841;50.252;18.688;2023-06-26T02:49:33;12.25;;;8.20;;
36923;SDS011;22841;50.252;18.688;2023-06-26T02:51:59;11.43;;;8.60;;
36923;SDS011;22841;50.252;18.688;2023-06-26T02:54:26;11.40;;;8.02;;
36923;SDS011;22841;50.252;18.688;2023-06-26T02:56:52;13.55;;;8.68;;
36923;SDS011;22841;50.252;18.688;2023-06-26T02:59:18;15.85;;;8.32;;
36923;SDS011;22841;50.252;18.688;2023-06-26T03:01:44;10.75;;;8.15;;
36923;SDS011;22841;50.252;18.688;2023-06-26T03:04:10;12.48;;;8.40;;
36923;SDS011;22841;50.252;18.688;2023-06-26T03:06:36;11.45;;;7.90;;
36923;SDS011;22841;50.252;18.688;2023-06-26T03:09:03;14.98;;;7.72;;
36923;SDS011;22841;50.252;18.688;2023-06-26T03:11:29;13.88;;;8.68;;
36923;SDS011;22841;50.252;18.688;2023-06-26T03:13:55;10.40;;;7.97;;
36923;SDS011;22841;50.252;18.688;2023-06-26T03:16:21;13.40;;;9.10;;
36923;SDS011;22841;50.252;18.688;2023-06-26T03:18:47;13.68;;;8.98;;
36923;SDS011;22841;50.252;18.688;2023-06-26T03:21:13;14.63;;;9.25;;
36923;SDS011;22841;50.252;18.688;2023-06-26T03:23:39;11.35;;;8.40;;
36923;SDS011;22841;50.252;18.688;2023-06-26T03:26:05;13.10;;;8.65;;
36923;SDS011;22841;50.252;18.688;2023-06-26T03:28:31;14.35;;;8.68;;
36923;SDS011;22841;50.252;18.688;2023-06-26T03:30:57;19.08;;;9.43;;
36923;SDS011;22841;50.252;18.688;2023-06-26T03:33:24;12.18;;;8.27;;
36923;SDS011;22841;50.252;18.688;2023-06-26T03:35:50;16.88;;;10.02;;
36923;SDS011;22841;50.252;18.688;2023-06-26T03:38:16;14.88;;;9.90;;
36923;SDS011;22841;50.252;18.688;2023-06-26T03:40:43;17.65;;;10.38;;
36923;SDS011;22841;50.252;18.688;2023-06-26T03:43:09;15.75;;;10.82;;
36923;SDS011;22841;50.252;18.688;2023-06-26T03:45:35;21.23;;;11.57;;
36923;SDS011;22841;50.252;18.688;2023-06-26T03:48:01;15.77;;;11.02;;
36923;SDS011;22841;50.252;18.688;2023-06-26T03:50:27;22.05;;;11.35;;
36923;SDS011;22841;50.252;18.688;2023-06-26T03:52:53;18.42;;;11.10;;
36923;SDS011;22841;50.252;18.688;2023-06-26T03:55:20;23.15;;;11.52;;
36923;SDS011;22841;50.252;18.688;2023-06-26T03:57:48;18.60;;;11.30;;
36923;SDS011;22841;50.252;18.688;2023-06-26T04:00:14;17.88;;;10.82;;
36923;SDS011;22841;50.252;18.688;2023-06-26T04:02:40;18.70;;;11.18;;
36923;SDS011;22841;50.252;18.688;2023-06-26T04:05:07;26.98;;;12.77;;
36923;SDS011;22841;50.252;18.688;2023-06-26T04:07:33;28.25;;;12.93;;
36923;SDS011;22841;50.252;18.688;2023-06-26T04:10:01;19.85;;;12.65;;
36923;SDS011;22841;50.252;18.688;2023-06-26T04:12:27;24.63;;;13.27;;
36923;SDS011;22841;50.252;18.688;2023-06-26T04:14:53;25.05;;;12.32;;
36923;SDS011;22841;50.252;18.688;2023-06-26T04:17:19;20.65;;;12.07;;
36923;SDS011;22841;50.252;18.688;2023-06-26T04:19:46;19.13;;;11.15;;
36923;SDS011;22841;50.252;18.688;2023-06-26T04:22:12;15.48;;;10.77;;
36923;SDS011;22841;50.252;18.688;2023-06-26T04:24:38;40.17;;;12.05;;
36923;SDS011;22841;50.252;18.688;2023-06-26T04:27:04;17.42;;;11.43;;
36923;SDS011;22841;50.252;18.688;2023-06-26T04:29:31;17.85;;;11.68;;
36923;SDS011;22841;50.252;18.688;2023-06-26T04:31:57;18.90;;;12.98;;
36923;SDS011;22841;50.252;18.688;2023-06-26T04:34:29;17.63;;;11.25;;
36923;SDS011;22841;50.252;18.688;2023-06-26T04:37:00;24.98;;;12.52;;
36923;SDS011;22841;50.252;18.688;2023-06-26T04:39:30;19.08;;;11.52;;
36923;SDS011;22841;50.252;18.688;2023-06-26T04:41:56;20.58;;;12.98;;
36923;SDS011;22841;50.252;18.688;2023-06-26T04:44:22;24.90;;;12.52;;
36923;SDS011;22841;50.252;18.688;2023-06-26T04:46:48;21.63;;;12.27;;
36923;SDS011;22841;50.252;18.688;2023-06-26T04:49:17;21.48;;;12.32;;
36923;SDS011;22841;50.252;18.688;2023-06-26T04:51:44;25.05;;;13.77;;
36923;SDS011;22841;50.252;18.688;2023-06-26T04:54:10;20.85;;;11.77;;
36923;SDS011;22841;50.252;18.688;2023-06-26T04:56:36;21.15;;;12.32;;
36923;SDS011;22841;50.252;18.688;2023-06-26T04:59:05;20.25;;;12.00;;
36923;SDS011;22841;50.252;18.688;2023-06-26T05:01:31;25.42;;;12.27;;
36923;SDS011;22841;50.252;18.688;2023-06-26T05:03:58;21.65;;;12.10;;
36923;SDS011;22841;50.252;18.688;2023-06-26T05:06:24;24.55;;;13.27;;
36923;SDS011;22841;50.252;18.688;2023-06-26T05:08:50;18.42;;;11.95;;
36923;SDS011;22841;50.252;18.688;2023-06-26T05:11:16;21.77;;;11.73;;
36923;SDS011;22841;50.252;18.688;2023-06-26T05:13:43;18.10;;;11.68;;
36923;SDS011;22841;50.252;18.688;2023-06-26T05:16:09;19.15;;;12.32;;
36923;SDS011;22841;50.252;18.688;2023-06-26T05:18:35;22.33;;;13.27;;
36923;SDS011;22841;50.252;18.688;2023-06-26T05:21:02;18.98;;;12.25;;
36923;SDS011;22841;50.252;18.688;2023-06-26T05:23:32;17.83;;;12.73;;
36923;SDS011;22841;50.252;18.688;2023-06-26T05:25:59;17.67;;;12.23;;
36923;SDS011;22841;50.252;18.688;2023-06-26T05:28:27;20.95;;;13.02;;
36923;SDS011;22841;50.252;18.688;2023-06-26T05:30:54;20.67;;;12.18;;
36923;SDS011;22841;50.252;18.688;2023-06-26T05:33:21;22.30;;;12.70;;
36923;SDS011;22841;50.252;18.688;2023-06-26T05:35:50;26.50;;;12.75;;
36923;SDS011;22841;50.252;18.688;2023-06-26T05:38:18;26.35;;;12.75;;
36923;SDS011;22841;50.252;18.688;2023-06-26T05:40:45;28.38;;;12.65;;
36923;SDS011;22841;50.252;18.688;2023-06-26T05:43:11;26.13;;;13.65;;
36923;SDS011;22841;50.252;18.688;2023-06-26T05:45:38;19.65;;;13.50;;
36923;SDS011;22841;50.252;18.688;2023-06-26T05:48:04;20.38;;;12.18;;
36923;SDS011;22841;50.252;18.688;2023-06-26T05:50:30;19.52;;;12.45;;
36923;SDS011;22841;50.252;18.688;2023-06-26T05:52:56;24.42;;;13.15;;
36923;SDS011;22841;50.252;18.688;2023-06-26T05:55:23;20.65;;;12.35;;
36923;SDS011;22841;50.252;18.688;2023-06-26T05:57:50;25.77;;;14.05;;
36923;SDS011;22841;50.252;18.688;2023-06-26T06:00:17;22.83;;;14.02;;
36923;SDS011;22841;50.252;18.688;2023-06-26T06:02:43;23.75;;;13.38;;
36923;SDS011;22841;50.252;18.688;2023-06-26T06:05:11;32.90;;;14.18;;
36923;SDS011;22841;50.252;18.688;2023-06-26T06:07:37;23.85;;;12.98;;
36923;SDS011;22841;50.252;18.688;2023-06-26T06:10:03;18.95;;;12.85;;
36923;SDS011;22841;50.252;18.688;2023-06-26T06:12:30;19.85;;;11.65;;
36923;SDS011;22841;50.252;18.688;2023-06-26T06:14:56;27.85;;;13.70;;
36923;SDS011;22841;50.252;18.688;2023-06-26T06:17:22;18.27;;;11.52;;
36923;SDS011;22841;50.252;18.688;2023-06-26T06:19:49;21.25;;;11.88;;
36923;SDS011;22841;50.252;18.688;2023-06-26T06:22:15;18.05;;;11.48;;
36923;SDS011;22841;50.252;18.688;2023-06-26T06:24:43;19.58;;;11.55;;
36923;SDS011;22841;50.252;18.688;2023-06-26T06:27:09;20.17;;;12.13;;
36923;SDS011;22841;50.252;18.688;2023-06-26T06:29:35;20.08;;;11.38;;
36923;SDS011;22841;50.252;18.688;2023-06-26T06:32:01;17.98;;;11.40;;
36923;SDS011;22841;50.252;18.688;2023-06-26T06:34:28;21.80;;;11.10;;
36923;SDS011;22841;50.252;18.688;2023-06-26T06:36:54;14.35;;;11.05;;
36923;SDS011;22841;50.252;18.688;2023-06-26T06:39:20;18.60;;;11.52;;
36923;SDS011;22841;50.252;18.688;2023-06-26T06:41:46;17.80;;;10.65;;
36923;SDS011;22841;50.252;18.688;2023-06-26T06:44:12;19.50;;;11.13;;
36923;SDS011;22841;50.252;18.688;2023-06-26T06:46:38;14.50;;;10.13;;
36923;SDS011;22841;50.252;18.688;2023-06-26T06:49:04;16.00;;;9.35;;
36923;SDS011;22841;50.252;18.688;2023-06-26T06:51:30;19.23;;;8.20;;
36923;SDS011;22841;50.252;18.688;2023-06-26T06:53:56;16.00;;;8.90;;
36923;SDS011;22841;50.252;18.688;2023-06-26T06:56:23;22.27;;;9.23;;
36923;SDS011;22841;50.252;18.688;2023-06-26T06:58:49;19.30;;;8.77;;
36923;SDS011;22841;50.252;18.688;2023-06-26T07:01:15;17.52;;;9.00;;
36923;SDS011;22841;50.252;18.688;2023-06-26T07:03:41;13.30;;;9.20;;
36923;SDS011;22841;50.252;18.688;2023-06-26T07:06:07;18.63;;;8.52;;
36923;SDS011;22841;50.252;18.688;2023-06-26T07:08:33;14.70;;;8.77;;
36923;SDS011;22841;50.252;18.688;2023-06-26T07:10:59;14.95;;;8.82;;
36923;SDS011;22841;50.252;18.688;2023-06-26T07:13:26;17.88;;;8.13;;
36923;SDS011;22841;50.252;18.688;2023-06-26T07:15:52;10.90;;;7.85;;
36923;SDS011;22841;50.252;18.688;2023-06-26T07:18:18;16.40;;;8.23;;
36923;SDS011;22841;50.252;18.688;2023-06-26T07:20:44;12.07;;;7.20;;
36923;SDS011;22841;50.252;18.688;2023-06-26T07:23:10;12.32;;;7.15;;
36923;SDS011;22841;50.252;18.688;2023-06-26T07:25:36;14.57;;;8.35;;
36923;SDS011;22841;50.252;18.688;2023-06-26T07:28:02;14.73;;;7.25;;
36923;SDS011;22841;50.252;18.688;2023-06-26T07:30:29;11.85;;;7.85;;
36923;SDS011;22841;50.252;18.688;2023-06-26T07:32:55;12.75;;;8.50;;
36923;SDS011;22841;50.252;18.688;2023-06-26T07:35:21;9.73;;;7.50;;
36923;SDS011;22841;50.252;18.688;2023-06-26T07:37:47;11.48;;;7.72;;
36923;SDS011;22841;50.252;18.688;2023-06-26T07:40:14;19.83;;;7.70;;
36923;SDS011;22841;50.252;18.688;2023-06-26T07:42:43;15.93;;;7.63;;
36923;SDS011;22841;50.252;18.688;2023-06-26T07:45:09;10.68;;;6.50;;
36923;SDS011;22841;50.252;18.688;2023-06-26T07:47:37;11.55;;;6.75;;
36923;SDS011;22841;50.252;18.688;2023-06-26T07:50:04;20.15;;;7.30;;
36923;SDS011;22841;50.252;18.688;2023-06-26T07:52:31;11.27;;;7.18;;
36923;SDS011;22841;50.252;18.688;2023-06-26T07:54:57;10.57;;;7.10;;
36923;SDS011;22841;50.252;18.688;2023-06-26T07:57:23;13.35;;;6.57;;
36923;SDS011;22841;50.252;18.688;2023-06-26T07:59:50;15.20;;;7.10;;
36923;SDS011;22841;50.252;18.688;2023-06-26T08:02:16;9.88;;;6.43;;
36923;SDS011;22841;50.252;18.688;2023-06-26T08:04:42;10.68;;;6.93;;
36923;SDS011;22841;50.252;18.688;2023-06-26T08:07:09;9.95;;;7.20;;
36923;SDS011;22841;50.252;18.688;2023-06-26T08:09:35;12.57;;;7.95;;
36923;SDS011;22841;50.252;18.688;2023-06-26T08:12:02;13.75;;;6.47;;
36923;SDS011;22841;50.252;18.688;2023-06-26T08:14:28;9.75;;;6.43;;
36923;SDS011;22841;50.252;18.688;2023-06-26T08:16:54;8.77;;;5.88;;
36923;SDS011;22841;50.252;18.688;2023-06-26T08:19:20;10.13;;;5.32;;
36923;SDS011;22841;50.252;18.688;2023-06-26T08:21:47;8.23;;;5.18;;
36923;SDS011;22841;50.252;18.688;2023-06-26T08:24:13;11.15;;;5.75;;
36923;SDS011;22841;50.252;18.688;2023-06-26T08:26:44;10.57;;;6.38;;
36923;SDS011;22841;50.252;18.688;2023-06-26T08:29:13;8.75;;;6.07;;
36923;SDS011;22841;50.252;18.688;2023-06-26T08:31:39;8.32;;;5.57;;
36923;SDS011;22841;50.252;18.688;2023-06-26T08:34:06;10.52;;;5.20;;
36923;SDS011;22841;50.252;18.688;2023-06-26T08:36:32;9.05;;;6.60;;
36923;SDS011;22841;50.252;18.688;2023-06-26T08:38:58;10.48;;;6.15;;
36923;SDS011;22841;50.252;18.688;2023-06-26T08:41:25;11.32;;;5.75;;
36923;SDS011;22841;50.252;18.688;2023-06-26T08:43:51;7.75;;;5.25;;
36923;SDS011;22841;50.252;18.688;2023-06-26T08:46:18;7.97;;;5.60;;
36923;SDS011;22841;50.252;18.688;2023-06-26T08:48:48;7.13;;;4.97;;
36923;SDS011;22841;50.252;18.688;2023-06-26T08:51:20;8.23;;;4.97;;
36923;SDS011;22841;50.252;18.688;2023-06-26T08:54:00;6.30;;;4.13;;
36923;SDS011;22841;50.252;18.688;2023-06-26T08:56:46;7.00;;;4.95;;
36923;SDS011;22841;50.252;18.688;2023-06-26T08:59:14;7.70;;;5.07;;
36923;SDS011;22841;50.252;18.688;2023-06-26T09:01:41;7.40;;;4.65;;
36923;SDS011;22841;50.252;18.688;2023-06-26T09:04:08;7.75;;;4.85;;
36923;SDS011;22841;50.252;18.688;2023-06-26T09:06:34;7.50;;;4.88;;
36923;SDS011;22841;50.252;18.688;2023-06-26T09:09:00;5.75;;;4.35;;
36923;SDS011;22841;50.252;18.688;2023-06-26T09:11:26;5.22;;;4.13;;
36923;SDS011;22841;50.252;18.688;2023-06-26T09:13:52;6.65;;;4.50;;
36923;SDS011;22841;50.252;18.688;2023-06-26T09:16:23;5.32;;;4.55;;
36923;SDS011;22841;50.252;18.688;2023-06-26T09:18:52;4.38;;;3.97;;
36923;SDS011;22841;50.252;18.688;2023-06-26T09:21:18;6.75;;;4.78;;
36923;SDS011;22841;50.252;18.688;2023-06-26T09:23:44;7.15;;;5.22;;
36923;SDS011;22841;50.252;18.688;2023-06-26T09:26:11;7.72;;;4.57;;
36923;SDS011;22841;50.252;18.688;2023-06-26T09:28:42;6.43;;;4.10;;
36923;SDS011;22841;50.252;18.688;2023-06-26T09:31:08;8.77;;;4.35;;
36923;SDS011;22841;50.252;18.688;2023-06-26T09:33:36;5.00;;;4.50;;
36923;SDS011;22841;50.252;18.688;2023-06-26T09:36:18;5.07;;;4.40;;
36923;SDS011;22841;50.252;18.688;2023-06-26T09:38:47;10.15;;;4.35;;
36923;SDS011;22841;50.252;18.688;2023-06-26T09:41:19;6.60;;;4.38;;
36923;SDS011;22841;50.252;18.688;2023-06-26T09:43:49;5.18;;;4.63;;
36923;SDS011;22841;50.252;18.688;2023-06-26T09:46:17;9.30;;;4.57;;
36923;SDS011;22841;50.252;18.688;2023-06-26T09:48:58;6.32;;;4.63;;
36923;SDS011;22841;50.252;18.688;2023-06-26T09:51:26;4.82;;;3.70;;
36923;SDS011;22841;50.252;18.688;2023-06-26T09:53:56;4.07;;;3.67;;
36923;SDS011;22841;50.252;18.688;2023-06-26T09:56:22;5.47;;;4.50;;
36923;SDS011;22841;50.252;18.688;2023-06-26T09:58:49;5.65;;;4.38;;
36923;SDS011;22841;50.252;18.688;2023-06-26T10:01:15;6.32;;;4.25;;
36923;SDS011;22841;50.252;18.688;2023-06-26T10:03:42;8.43;;;4.05;;
36923;SDS011;22841;50.252;18.688;2023-06-26T10:06:09;6.55;;;4.05;;
36923;SDS011;22841;50.252;18.688;2023-06-26T10:08:37;7.82;;;4.07;;
36923;SDS011;22841;50.252;18.688;2023-06-26T10:11:05;11.05;;;4.60;;
36923;SDS011;22841;50.252;18.688;2023-06-26T10:16:04;6.13;;;4.32;;
36923;SDS011;22841;50.252;18.688;2023-06-26T10:18:33;5.55;;;4.32;;
36923;SDS011;22841;50.252;18.688;2023-06-26T10:21:03;5.53;;;4.80;;
36923;SDS011;22841;50.252;18.688;2023-06-26T10:23:32;5.65;;;4.78;;
36923;SDS011;22841;50.252;18.688;2023-06-26T10:26:00;11.13;;;4.40;;
36923;SDS011;22841;50.252;18.688;2023-06-26T10:28:27;9.00;;;4.32;;
36923;SDS011;22841;50.252;18.688;2023-06-26T10:30:55;6.10;;;4.50;;
36923;SDS011;22841;50.252;18.688;2023-06-26T10:33:21;5.88;;;4.47;;
36923;SDS011;22841;50.252;18.688;2023-06-26T10:35:48;7.70;;;4.30;;
36923;SDS011;22841;50.252;18.688;2023-06-26T10:38:15;9.15;;;4.45;;
36923;SDS011;22841;50.252;18.688;2023-06-26T10:40:42;6.07;;;4.90;;
36923;SDS011;22841;50.252;18.688;2023-06-26T10:43:11;4.63;;;4.18;;
36923;SDS011;22841;50.252;18.688;2023-06-26T10:45:44;73.15;;;9.05;;
36923;SDS011;22841;50.252;18.688;2023-06-26T10:48:15;4.88;;;4.38;;
36923;SDS011;22841;50.252;18.688;2023-06-26T10:50:41;7.13;;;5.05;;
36923;SDS011;22841;50.252;18.688;2023-06-26T11:03:59;5.32;;;3.67;;
36923;SDS011;22841;50.252;18.688;2023-06-26T11:06:30;6.25;;;4.32;;
36923;SDS011;22841;50.252;18.688;2023-06-26T11:14:23;6.10;;;4.20;;
36923;SDS011;22841;50.252;18.688;2023-06-26T11:16:51;6.47;;;4.07;;
36923;SDS011;22841;50.252;18.688;2023-06-26T11:19:18;7.97;;;4.78;;
36923;SDS011;22841;50.252;18.688;2023-06-26T11:21:44;15.85;;;4.72;;
36923;SDS011;22841;50.252;18.688;2023-06-26T11:24:12;9.90;;;4.07;;
36923;SDS011;22841;50.252;18.688;2023-06-26T11:26:42;19.80;;;4.68;;
36923;SDS011;22841;50.252;18.688;2023-06-26T11:29:10;6.93;;;3.58;;
36923;SDS011;22841;50.252;18.688;2023-06-26T11:31:37;5.28;;;4.15;;
36923;SDS011;22841;50.252;18.688;2023-06-26T11:34:05;4.07;;;3.70;;
36923;SDS011;22841;50.252;18.688;2023-06-26T11:36:34;12.40;;;4.07;;
36923;SDS011;22841;50.252;18.688;2023-06-26T11:39:03;7.15;;;4.13;;
36923;SDS011;22841;50.252;18.688;2023-06-26T11:41:33;4.43;;;3.90;;
36923;SDS011;22841;50.252;18.688;2023-06-26T11:44:03;6.00;;;4.75;;
36923;SDS011;22841;50.252;18.688;2023-06-26T11:46:30;5.53;;;3.88;;
36923;SDS011;22841;50.252;18.688;2023-06-26T11:48:57;6.90;;;4.13;;
36923;SDS011;22841;50.252;18.688;2023-06-26T11:51:23;7.80;;;3.97;;
36923;SDS011;22841;50.252;18.688;2023-06-26T11:53:55;5.80;;;4.13;;
36923;SDS011;22841;50.252;18.688;2023-06-26T11:56:21;8.15;;;3.90;;
36923;SDS011;22841;50.252;18.688;2023-06-26T12:01:24;6.72;;;3.80;;
36923;SDS011;22841;50.252;18.688;2023-06-26T12:03:54;9.82;;;3.85;;
36923;SDS011;22841;50.252;18.688;2023-06-26T12:06:24;4.35;;;3.65;;
36923;SDS011;22841;50.252;18.688;2023-06-26T12:08:50;5.22;;;3.97;;
36923;SDS011;22841;50.252;18.688;2023-06-26T12:11:16;6.55;;;3.83;;
36923;SDS011;22841;50.252;18.688;2023-06-26T12:13:43;5.07;;;3.92;;
36923;SDS011;22841;50.252;18.688;2023-06-26T12:16:09;5.45;;;4.20;;
36923;SDS011;22841;50.252;18.688;2023-06-26T12:18:36;3.88;;;3.47;;
36923;SDS011;22841;50.252;18.688;2023-06-26T12:21:02;5.07;;;3.78;;
36923;SDS011;22841;50.252;18.688;2023-06-26T12:23:32;4.88;;;3.83;;
36923;SDS011;22841;50.252;18.688;2023-06-26T12:26:15;8.45;;;3.95;;
36923;SDS011;22841;50.252;18.688;2023-06-26T12:28:43;5.20;;;4.20;;
36923;SDS011;22841;50.252;18.688;2023-06-26T12:31:16;5.72;;;3.33;;
36923;SDS011;22841;50.252;18.688;2023-06-26T12:33:46;5.00;;;3.75;;
36923;SDS011;22841;50.252;18.688;2023-06-26T12:36:13;4.72;;;3.45;;
36923;SDS011;22841;50.252;18.688;2023-06-26T12:38:40;11.02;;;4.13;;
36923;SDS011;22841;50.252;18.688;2023-06-26T12:41:12;9.48;;;3.53;;
36923;SDS011;22841;50.252;18.688;2023-06-26T12:43:42;4.45;;;3.55;;
36923;SDS011;22841;50.252;18.688;2023-06-26T12:46:08;4.10;;;3.70;;
36923;SDS011;22841;50.252;18.688;2023-06-26T12:48:44;6.63;;;3.92;;
36923;SDS011;22841;50.252;18.688;2023-06-26T12:51:12;5.35;;;3.67;;
36923;SDS011;22841;50.252;18.688;2023-06-26T12:53:40;3.40;;;3.10;;
36923;SDS011;22841;50.252;18.688;2023-06-26T12:56:07;3.45;;;3.15;;
36923;SDS011;22841;50.252;18.688;2023-06-26T12:58:37;3.33;;;3.05;;
36923;SDS011;22841;50.252;18.688;2023-06-26T13:01:04;8.95;;;3.92;;
36923;SDS011;22841;50.252;18.688;2023-06-26T13:03:40;4.47;;;4.05;;
36923;SDS011;22841;50.252;18.688;2023-06-26T13:06:06;4.20;;;3.80;;
36923;SDS011;22841;50.252;18.688;2023-06-26T13:08:33;5.05;;;3.30;;
36923;SDS011;22841;50.252;18.688;2023-06-26T13:10:59;5.20;;;3.67;;
36923;SDS011;22841;50.252;18.688;2023-06-26T13:13:25;3.38;;;2.83;;
36923;SDS011;22841;50.252;18.688;2023-06-26T13:15:52;3.70;;;2.95;;
36923;SDS011;22841;50.252;18.688;2023-06-26T13:18:18;4.20;;;3.20;;
36923;SDS011;22841;50.252;18.688;2023-06-26T13:20:45;3.58;;;3.05;;
36923;SDS011;22841;50.252;18.688;2023-06-26T13:23:12;3.75;;;3.45;;
36923;SDS011;22841;50.252;18.688;2023-06-26T13:25:38;5.07;;;3.25;;
36923;SDS011;22841;50.252;18.688;2023-06-26T13:28:04;7.72;;;3.15;;
36923;SDS011;22841;50.252;18.688;2023-06-26T13:30:30;4.40;;;3.78;;
36923;SDS011;22841;50.252;18.688;2023-06-26T13:32:56;6.72;;;3.90;;
36923;SDS011;22841;50.252;18.688;2023-06-26T13:35:22;7.65;;;3.97;;
36923;SDS011;22841;50.252;18.688;2023-06-26T13:37:49;4.50;;;3.42;;
36923;SDS011;22841;50.252;18.688;2023-06-26T13:40:15;5.32;;;4.10;;
36923;SDS011;22841;50.252;18.688;2023-06-26T13:42:41;4.63;;;4.03;;
36923;SDS011;22841;50.252;18.688;2023-06-26T13:45:07;7.72;;;3.92;;
36923;SDS011;22841;50.252;18.688;2023-06-26T13:47:34;3.40;;;3.10;;
36923;SDS011;22841;50.252;18.688;2023-06-26T13:50:00;5.03;;;3.97;;
36923;SDS011;22841;50.252;18.688;2023-06-26T13:52:26;4.18;;;3.78;;
36923;SDS011;22841;50.252;18.688;2023-06-26T13:54:52;4.95;;;3.85;;
36923;SDS011;22841;50.252;18.688;2023-06-26T13:57:18;8.43;;;3.78;;
36923;SDS011;22841;50.252;18.688;2023-06-26T13:59:47;6.63;;;4.00;;
36923;SDS011;22841;50.252;18.688;2023-06-26T14:02:13;7.15;;;4.47;;
36923;SDS011;22841;50.252;18.688;2023-06-26T14:04:39;5.53;;;4.35;;
36923;SDS011;22841;50.252;18.688;2023-06-26T14:07:06;5.70;;;3.67;;
36923;SDS011;22841;50.252;18.688;2023-06-26T14:09:32;5.30;;;4.22;;
36923;SDS011;22841;50.252;18.688;2023-06-26T14:11:58;4.55;;;3.72;;
36923;SDS011;22841;50.252;18.688;2023-06-26T14:14:25;5.35;;;4.25;;
36923;SDS011;22841;50.252;18.688;2023-06-26T14:16:51;7.78;;;4.32;;
36923;SDS011;22841;50.252;18.688;2023-06-26T14:19:17;4.85;;;4.10;;
36923;SDS011;22841;50.252;18.688;2023-06-26T14:21:43;6.85;;;4.28;;
36923;SDS011;22841;50.252;18.688;2023-06-26T14:24:09;9.85;;;4.22;;
36923;SDS011;22841;50.252;18.688;2023-06-26T14:26:35;5.13;;;4.38;;
36923;SDS011;22841;50.252;18.688;2023-06-26T14:29:02;6.70;;;4.15;;
36923;SDS011;22841;50.252;18.688;2023-06-26T14:31:28;8.80;;;4.03;;
36923;SDS011;22841;50.252;18.688;2023-06-26T14:33:54;5.68;;;4.30;;
36923;SDS011;22841;50.252;18.688;2023-06-26T14:36:21;5.78;;;4.60;;
36923;SDS011;22841;50.252;18.688;2023-06-26T14:38:47;5.80;;;4.20;;
36923;SDS011;22841;50.252;18.688;2023-06-26T14:41:13;7.25;;;4.80;;
36923;SDS011;22841;50.252;18.688;2023-06-26T14:43:39;5.30;;;4.40;;
36923;SDS011;22841;50.252;18.688;2023-06-26T14:46:05;5.20;;;4.70;;
36923;SDS011;22841;50.252;18.688;2023-06-26T14:48:31;22.05;;;4.60;;
36923;SDS011;22841;50.252;18.688;2023-06-26T14:50:57;6.82;;;4.65;;
36923;SDS011;22841;50.252;18.688;2023-06-26T14:53:25;6.60;;;4.63;;